Time,TemperatureF,DewpointF,PressureIn,WindDirection,WindDirectionDegrees,WindSpeedMPH,WindSpeedGustMPH,Humidity,HourlyPrecipIn,Conditions,Clouds,dailyrainin,SoftwareType,DateUTC
2013-02-28 00:00:00,32.8,32.8,29.01,SSW,202,0.0,6.0,100,0.00,,,0.00,Weather View 32 v70,2013-02-28 05:00:00,
2013-02-28 00:05:00,32.7,32.7,29.01,SSW,202,0.0,5.0,100,0.00,,,0.00,Weather View 32 v70,2013-02-28 05:05:00,
2013-02-28 00:10:00,32.8,32.8,29.01,SW,225,0.0,5.0,100,0.00,,,0.00,Weather View 32 v70,2013-02-28 05:10:00,
2013-02-28 00:15:00,32.6,32.6,29.01,SW,225,0.0,4.0,100,0.00,,,0.00,Weather View 32 v70,2013-02-28 05:15:00,
2013-02-28 00:20:00,32.5,32.5,29.01,SSW,202,0.0,4.0,100,0.00,,,0.00,Weather View 32 v70,2013-02-28 05:20:00,
2013-02-28 00:25:00,32.4,32.4,29.01,SSW,202,0.0,4.0,100,0.00,,,0.00,Weather View 32 v70,2013-02-28 05:25:00,
2013-02-28 00:30:00,32.4,32.4,29.01,SSW,202,0.0,3.0,100,0.00,,,0.00,Weather View 32 v70,2013-02-28 05:30:00,
2013-02-28 00:35:00,32.4,32.4,29.00,SSW,202,1.0,3.0,100,0.00,,,0.00,Weather View 32 v70,2013-02-28 05:35:00,
2013-02-28 00:40:00,32.3,32.3,29.00,SSW,202,2.0,3.0,100,0.00,,,0.00,Weather View 32 v70,2013-02-28 05:40:00,
2013-02-28 00:45:00,32.2,32.2,29.00,SSW,202,1.0,3.0,100,0.00,,,0.00,Weather View 32 v70,2013-02-28 05:45:00,
2013-02-28 00:50:00,32.3,32.3,29.00,SSW,202,1.0,3.0,100,0.00,,,0.00,Weather View 32 v70,2013-02-28 05:50:00,
2013-02-28 00:55:00,32.3,32.3,28.99,SW,225,0.0,3.0,100,0.00,,,0.00,Weather View 32 v70,2013-02-28 05:55:00,
2013-02-28 01:00:00,32.3,32.3,28.99,WSW,247,0.0,3.0,100,0.00,,,0.00,Weather View 32 v70,2013-02-28 06:00:00,
2013-02-28 01:05:00,32.2,32.2,28.99,SSW,202,1.0,3.0,100,0.00,,,0.00,Weather View 32 v70,2013-02-28 06:05:00,
2013-02-28 01:10:00,32.2,32.2,28.99,WSW,247,0.0,3.0,100,0.00,,,0.00,Weather View 32 v70,2013-02-28 06:10:00,
2013-02-28 01:15:00,32.2,32.2,28.99,SW,225,0.0,3.0,100,0.00,,,0.00,Weather View 32 v70,2013-02-28 06:15:00,
2013-02-28 01:21:00,32.2,32.2,28.99,WSW,247,0.0,3.0,100,0.00,,,0.00,Weather View 32 v70,2013-02-28 06:21:00,
2013-02-28 01:26:00,32.3,32.3,28.99,WSW,247,0.0,3.0,100,0.00,,,0.00,Weather View 32 v70,2013-02-28 06:26:00,
2013-02-28 01:31:00,32.3,32.3,28.99,SW,225,0.0,3.0,100,0.00,,,0.00,Weather View 32 v70,2013-02-28 06:31:00,
2013-02-28 01:36:00,32.2,32.2,28.98,WSW,247,0.0,3.0,100,0.00,,,0.00,Weather View 32 v70,2013-02-28 06:36:00,
2013-02-28 01:41:00,32.2,32.2,28.98,WSW,247,0.0,3.0,100,0.00,,,0.00,Weather View 32 v70,2013-02-28 06:41:00,
2013-02-28 01:46:00,32.1,32.1,28.98,WSW,247,0.0,3.0,100,0.00,,,0.00,Weather View 32 v70,2013-02-28 06:46:00,
2013-02-28 01:51:00,32.0,32.0,28.98,WSW,247,0.0,3.0,100,0.00,,,0.00,Weather View 32 v70,2013-02-28 06:51:00,
2013-02-28 01:56:00,32.0,32.0,28.98,WSW,247,0.0,3.0,100,0.00,,,0.00,Weather View 32 v70,2013-02-28 06:56:00,
2013-02-28 02:01:00,32.0,32.0,28.98,North,360,0.0,3.0,100,0.00,,,0.00,Weather View 32 v70,2013-02-28 07:01:00,
2013-02-28 02:06:00,31.9,31.9,28.97,NNE,22,0.0,3.0,100,0.00,,,0.00,Weather View 32 v70,2013-02-28 07:06:00,
2013-02-28 02:11:00,31.9,31.9,28.97,WNW,292,0.0,3.0,100,0.00,,,0.00,Weather View 32 v70,2013-02-28 07:11:00,
2013-02-28 02:16:00,31.9,31.9,28.97,WNW,292,0.0,3.0,100,0.00,,,0.00,Weather View 32 v70,2013-02-28 07:16:00,
2013-02-28 02:21:00,31.8,31.8,28.97,WNW,292,0.0,3.0,100,0.00,,,0.00,Weather View 32 v70,2013-02-28 07:21:00,
2013-02-28 02:26:00,31.8,31.8,28.96,WNW,292,0.0,3.0,100,0.00,,,0.00,Weather View 32 v70,2013-02-28 07:26:00,
2013-02-28 02:31:00,31.7,31.7,28.97,WNW,292,0.0,0.0,100,0.00,,,0.00,Weather View 32 v70,2013-02-28 07:31:00,
2013-02-28 02:36:00,31.7,31.7,28.97,WNW,292,0.0,0.0,100,0.00,,,0.00,Weather View 32 v70,2013-02-28 07:36:00,
2013-02-28 02:41:00,31.7,31.7,28.97,WNW,292,0.0,0.0,100,0.00,,,0.00,Weather View 32 v70,2013-02-28 07:41:00,
2013-02-28 02:46:00,31.6,31.6,28.97,WNW,292,0.0,0.0,100,0.00,,,0.00,Weather View 32 v70,2013-02-28 07:46:00,
2013-02-28 02:51:00,31.6,31.6,28.96,WNW,292,0.0,0.0,100,0.00,,,0.00,Weather View 32 v70,2013-02-28 07:51:00,
2013-02-28 02:56:00,31.6,31.6,28.96,WNW,292,0.0,0.0,100,0.00,,,0.00,Weather View 32 v70,2013-02-28 07:56:00,
2013-02-28 03:01:00,31.6,31.6,28.96,WNW,292,0.0,0.0,100,0.00,,,0.00,Weather View 32 v70,2013-02-28 08:01:00,
2013-02-28 03:06:00,31.5,31.5,28.96,WNW,292,0.0,0.0,100,0.00,,,0.00,Weather View 32 v70,2013-02-28 08:06:00,
2013-02-28 03:11:00,31.5,31.5,28.96,WNW,292,0.0,0.0,100,0.00,,,0.00,Weather View 32 v70,2013-02-28 08:11:00,
2013-02-28 03:16:00,31.6,31.6,28.96,WNW,292,0.0,0.0,100,0.00,,,0.00,Weather View 32 v70,2013-02-28 08:16:00,
2013-02-28 03:21:00,31.5,31.5,28.96,WNW,292,0.0,0.0,100,0.00,,,0.00,Weather View 32 v70,2013-02-28 08:21:00,
2013-02-28 03:26:00,31.5,31.5,28.96,WNW,292,0.0,0.0,100,0.00,,,0.00,Weather View 32 v70,2013-02-28 08:26:00,
2013-02-28 03:31:00,31.4,31.4,28.96,WNW,292,0.0,0.0,100,0.00,,,0.00,Weather View 32 v70,2013-02-28 08:31:00,
2013-02-28 03:36:00,31.4,31.4,28.95,NNE,22,0.0,0.0,100,0.00,,,0.00,Weather View 32 v70,2013-02-28 08:36:00,
2013-02-28 03:41:00,31.4,31.4,28.96,NNE,22,0.0,0.0,100,0.00,,,0.00,Weather View 32 v70,2013-02-28 08:41:00,
2013-02-28 03:46:00,31.4,31.4,28.96,North,360,0.0,0.0,100,0.00,,,0.00,Weather View 32 v70,2013-02-28 08:46:00,
2013-02-28 03:51:00,31.5,31.5,28.96,NNE,22,0.0,2.0,100,0.00,,,0.00,Weather View 32 v70,2013-02-28 08:51:00,
2013-02-28 03:56:00,31.5,31.5,28.96,ENE,67,0.0,2.0,100,0.00,,,0.00,Weather View 32 v70,2013-02-28 08:56:00,
2013-02-28 04:01:00,31.5,31.5,28.96,ENE,67,0.0,2.0,100,0.00,,,0.00,Weather View 32 v70,2013-02-28 09:01:00,
2013-02-28 04:06:00,31.5,31.5,28.95,ENE,67,0.0,2.0,100,0.00,,,0.00,Weather View 32 v70,2013-02-28 09:06:00,
2013-02-28 04:11:00,31.4,31.4,28.95,ENE,67,0.0,2.0,100,0.00,,,0.00,Weather View 32 v70,2013-02-28 09:11:00,
2013-02-28 04:16:00,31.5,31.5,28.95,ENE,67,0.0,2.0,100,0.00,,,0.00,Weather View 32 v70,2013-02-28 09:16:00,
2013-02-28 04:21:00,31.5,31.5,28.95,East,90,0.0,2.0,100,0.00,,,0.00,Weather View 32 v70,2013-02-28 09:21:00,
2013-02-28 04:26:00,31.6,31.6,28.95,ESE,112,0.0,2.0,100,0.00,,,0.00,Weather View 32 v70,2013-02-28 09:26:00,
2013-02-28 04:31:00,31.8,31.8,28.95,ESE,112,0.0,6.0,100,0.00,,,0.00,Weather View 32 v70,2013-02-28 09:31:00,
2013-02-28 04:36:00,31.6,31.6,28.96,SSE,157,0.0,6.0,100,0.00,,,0.00,Weather View 32 v70,2013-02-28 09:36:00,
2013-02-28 04:41:00,31.7,31.7,28.95,East,90,0.0,6.0,100,0.00,,,0.00,Weather View 32 v70,2013-02-28 09:41:00,
2013-02-28 04:46:00,31.7,31.7,28.95,East,90,0.0,6.0,100,0.00,,,0.00,Weather View 32 v70,2013-02-28 09:46:00,
2013-02-28 04:51:00,31.7,31.7,28.95,ESE,112,0.0,6.0,100,0.00,,,0.00,Weather View 32 v70,2013-02-28 09:51:00,
2013-02-28 04:56:00,31.7,31.7,28.95,ENE,67,2.0,6.0,100,0.00,,,0.00,Weather View 32 v70,2013-02-28 09:56:00,
2013-02-28 05:01:00,31.7,31.7,28.95,East,90,0.0,6.0,100,0.00,,,0.00,Weather View 32 v70,2013-02-28 10:01:00,
2013-02-28 05:06:00,31.6,31.6,28.96,ENE,67,0.0,6.0,100,0.00,,,0.00,Weather View 32 v70,2013-02-28 10:06:00,
2013-02-28 05:11:00,31.4,31.4,28.96,ENE,67,0.0,6.0,100,0.00,,,0.00,Weather View 32 v70,2013-02-28 10:11:00,
2013-02-28 05:16:00,31.4,31.4,28.96,ENE,67,0.0,6.0,100,0.00,,,0.00,Weather View 32 v70,2013-02-28 10:16:00,
2013-02-28 05:21:00,31.4,31.4,28.96,ENE,67,0.0,6.0,100,0.00,,,0.00,Weather View 32 v70,2013-02-28 10:21:00,
2013-02-28 05:26:00,31.4,31.4,28.96,ENE,67,0.0,6.0,100,0.00,,,0.00,Weather View 32 v70,2013-02-28 10:26:00,
2013-02-28 05:31:00,31.4,31.4,28.95,ENE,67,0.0,6.0,100,0.00,,,0.00,Weather View 32 v70,2013-02-28 10:31:00,
2013-02-28 05:36:00,31.4,31.4,28.95,SE,135,0.0,6.0,100,0.00,,,0.00,Weather View 32 v70,2013-02-28 10:36:00,
2013-02-28 05:41:00,31.5,31.5,28.96,SE,135,0.0,6.0,100,0.00,,,0.00,Weather View 32 v70,2013-02-28 10:41:00,
2013-02-28 05:46:00,31.7,31.7,28.96,SE,135,0.0,3.0,100,0.00,,,0.00,Weather View 32 v70,2013-02-28 10:46:00,
2013-02-28 05:51:00,31.8,31.8,28.95,SSE,157,0.0,3.0,100,0.00,,,0.00,Weather View 32 v70,2013-02-28 10:51:00,
2013-02-28 05:56:00,31.7,31.7,28.95,SSE,157,0.0,3.0,100,0.00,,,0.00,Weather View 32 v70,2013-02-28 10:56:00,
2013-02-28 06:02:00,31.8,31.8,28.96,NW,315,0.0,3.0,100,0.00,,,0.00,Weather View 32 v70,2013-02-28 11:02:00,
2013-02-28 06:07:00,31.9,31.9,28.95,WNW,292,0.0,3.0,100,0.00,,,0.00,Weather View 32 v70,2013-02-28 11:07:00,
2013-02-28 06:12:00,31.9,31.9,28.95,WNW,292,0.0,3.0,100,0.00,,,0.00,Weather View 32 v70,2013-02-28 11:12:00,
2013-02-28 06:17:00,31.8,31.8,28.95,ENE,67,0.0,0.0,100,0.00,,,0.00,Weather View 32 v70,2013-02-28 11:17:00,
2013-02-28 06:22:00,31.7,31.7,28.95,ENE,67,0.0,0.0,100,0.00,,,0.00,Weather View 32 v70,2013-02-28 11:22:00,
2013-02-28 06:27:00,31.7,31.7,28.96,ENE,67,0.0,0.0,100,0.00,,,0.00,Weather View 32 v70,2013-02-28 11:27:00,
2013-02-28 06:32:00,31.7,31.7,28.96,NNW,337,0.0,0.0,100,0.00,,,0.00,Weather View 32 v70,2013-02-28 11:32:00,
2013-02-28 06:37:00,31.8,31.8,28.96,West,270,0.0,0.0,100,0.00,,,0.00,Weather View 32 v70,2013-02-28 11:37:00,
2013-02-28 06:42:00,31.8,31.8,28.96,West,270,0.0,0.0,100,0.00,,,0.00,Weather View 32 v70,2013-02-28 11:42:00,
2013-02-28 06:47:00,31.7,31.7,28.97,WSW,247,0.0,0.0,100,0.00,,,0.00,Weather View 32 v70,2013-02-28 11:47:00,
2013-02-28 06:52:00,31.6,31.6,28.97,WSW,247,0.0,0.0,100,0.00,,,0.00,Weather View 32 v70,2013-02-28 11:52:00,
2013-02-28 06:57:00,31.6,31.6,28.97,WSW,247,0.0,0.0,100,0.00,,,0.00,Weather View 32 v70,2013-02-28 11:57:00,
2013-02-28 07:02:00,31.6,31.6,28.97,WSW,247,0.0,0.0,100,0.00,,,0.00,Weather View 32 v70,2013-02-28 12:02:00,
2013-02-28 07:07:00,31.6,31.6,28.97,WSW,247,0.0,0.0,100,0.00,,,0.00,Weather View 32 v70,2013-02-28 12:07:00,
2013-02-28 07:12:00,31.7,31.7,28.97,NW,315,0.0,0.0,100,0.00,,,0.00,Weather View 32 v70,2013-02-28 12:12:00,
2013-02-28 07:17:00,31.8,31.8,28.97,NW,315,0.0,0.0,100,0.00,,,0.00,Weather View 32 v70,2013-02-28 12:17:00,
2013-02-28 07:22:00,31.8,31.8,28.96,NNE,22,0.0,0.0,100,0.00,,,0.00,Weather View 32 v70,2013-02-28 12:22:00,
2013-02-28 07:27:00,31.9,31.9,28.96,NNE,22,0.0,0.0,100,0.00,,,0.00,Weather View 32 v70,2013-02-28 12:27:00,
2013-02-28 07:32:00,31.9,31.9,28.96,NNE,22,0.0,0.0,100,0.00,,,0.00,Weather View 32 v70,2013-02-28 12:32:00,
2013-02-28 07:37:00,31.9,31.9,28.96,ENE,67,0.0,0.0,100,0.00,,,0.00,Weather View 32 v70,2013-02-28 12:37:00,
2013-02-28 07:42:00,32.1,32.1,28.96,ENE,67,0.0,2.0,100,0.00,,,0.00,Weather View 32 v70,2013-02-28 12:42:00,
2013-02-28 07:47:00,32.3,32.3,28.96,ENE,67,0.0,3.0,100,0.00,,,0.00,Weather View 32 v70,2013-02-28 12:47:00,
2013-02-28 07:52:00,32.7,32.7,28.96,SE,135,4.0,7.0,100,0.00,,,0.00,Weather View 32 v70,2013-02-28 12:52:00,
2013-02-28 07:57:00,33.4,33.4,28.96,SSE,157,0.0,7.0,100,0.00,,,0.00,Weather View 32 v70,2013-02-28 12:57:00,
2013-02-28 08:02:00,33.6,33.6,28.96,ESE,112,1.0,8.0,100,0.00,,,0.00,Weather View 32 v70,2013-02-28 13:02:00,
2013-02-28 08:07:00,34.0,34.0,28.96,South,180,1.0,10.0,100,0.00,,,0.00,Weather View 32 v70,2013-02-28 13:07:00,
2013-02-28 08:12:00,34.1,34.1,28.96,NW,315,1.0,10.0,100,0.00,,,0.00,Weather View 32 v70,2013-02-28 13:12:00,
2013-02-28 08:17:00,33.8,33.8,28.96,WNW,292,0.0,10.0,100,0.00,,,0.00,Weather View 32 v70,2013-02-28 13:17:00,
2013-02-28 08:22:00,34.2,34.2,28.96,NNW,337,0.0,10.0,100,0.00,,,0.00,Weather View 32 v70,2013-02-28 13:22:00,
2013-02-28 08:27:00,34.6,34.6,28.96,North,360,0.0,10.0,100,0.01,,,0.01,Weather View 32 v70,2013-02-28 13:27:00,
2013-02-28 08:32:00,34.8,34.8,28.97,NNW,337,0.0,10.0,100,0.01,,,0.01,Weather View 32 v70,2013-02-28 13:32:00,
2013-02-28 08:37:00,35.2,35.2,28.97,NNW,337,0.0,10.0,100,0.01,,,0.01,Weather View 32 v70,2013-02-28 13:37:00,
2013-02-28 08:42:00,35.8,35.8,28.97,NNW,337,0.0,10.0,100,0.01,,,0.01,Weather View 32 v70,2013-02-28 13:42:00,
2013-02-28 08:47:00,35.7,35.7,28.97,West,270,3.0,10.0,100,0.01,,,0.01,Weather View 32 v70,2013-02-28 13:47:00,
2013-02-28 08:52:00,35.4,35.4,28.97,WSW,247,0.0,10.0,100,0.01,,,0.01,Weather View 32 v70,2013-02-28 13:52:00,
2013-02-28 08:57:00,35.7,35.7,28.97,WNW,292,2.0,10.0,100,0.01,,,0.01,Weather View 32 v70,2013-02-28 13:57:00,
2013-02-28 09:03:00,36.1,36.1,28.97,West,270,0.0,10.0,100,0.01,,,0.01,Weather View 32 v70,2013-02-28 14:03:00,
2013-02-28 09:08:00,36.7,36.7,28.97,East,90,3.0,10.0,100,0.01,,,0.01,Weather View 32 v70,2013-02-28 14:08:00,
2013-02-28 09:13:00,37.4,37.4,28.96,SSE,157,5.0,10.0,100,0.02,,,0.02,Weather View 32 v70,2013-02-28 14:13:00,
2013-02-28 09:18:00,38.0,38.0,28.96,NNW,337,0.0,7.0,100,0.02,,,0.02,Weather View 32 v70,2013-02-28 14:18:00,
2013-02-28 09:23:00,39.0,39.0,28.96,South,180,12.0,12.0,100,0.02,,,0.02,Weather View 32 v70,2013-02-28 14:23:00,
2013-02-28 09:28:00,39.0,39.0,28.96,SE,135,0.0,12.0,100,0.01,,,0.02,Weather View 32 v70,2013-02-28 14:28:00,
2013-02-28 09:33:00,39.6,39.6,28.96,ESE,112,4.0,12.0,100,0.01,,,0.02,Weather View 32 v70,2013-02-28 14:33:00,
2013-02-28 09:38:00,39.3,38.8,28.96,ESE,112,0.0,12.0,98,0.01,,,0.02,Weather View 32 v70,2013-02-28 14:38:00,
2013-02-28 09:43:00,40.2,39.9,28.96,NE,45,1.0,12.0,99,0.01,,,0.02,Weather View 32 v70,2013-02-28 14:43:00,
2013-02-28 09:48:00,40.7,40.7,28.96,SSE,157,6.0,12.0,100,0.01,,,0.02,Weather View 32 v70,2013-02-28 14:48:00,
2013-02-28 09:53:00,40.8,40.8,28.96,East,90,1.0,12.0,100,0.01,,,0.02,Weather View 32 v70,2013-02-28 14:53:00,
2013-02-28 09:58:00,40.8,39.7,28.96,ESE,112,7.0,12.0,96,0.01,,,0.02,Weather View 32 v70,2013-02-28 14:58:00,
2013-02-28 10:03:00,40.1,38.5,28.96,ESE,112,9.0,12.0,94,0.01,,,0.02,Weather View 32 v70,2013-02-28 15:03:00,
2013-02-28 10:08:00,39.7,38.1,28.96,SSE,157,6.0,14.0,94,0.01,,,0.02,Weather View 32 v70,2013-02-28 15:08:00,
2013-02-28 10:10:00,40.0,38.4,28.96,SSW,202,6.0,14.0,94,0.00,,,0.02,Weather View 32 v70,2013-02-28 15:10:00,